الصفحة الرئيسية
METAR-TAF:

METAR-TAF

مطار :

طرابلس, ليبيا

مطار معيتيقة الدولي

دائرة عرض: 32-54N, خط طول: 13-17E, ارتفاع: 11 متر

مراقبة الطقس الحالي

تاريخ ووقت الإصدار 1ساعة و 5 دقيقة قبل الساعة 17:50UTC
ريح 4 عقدة من الشرق/الجنوب الشرقي
درجة الحرارة 18°درجة مئوية
الرطوبة 52%
ضغط 1002 hPa
الرؤية: 6000 متر
غيوم متفرقة على ارتفاع 6000 قدم

METAR: HLLM 221750Z 11004KT 6000 SCT060 18/08 Q1002

زمن: 20:55 (18:55 UTC)

توقعات

تاريخ ووقت الإصدار 1ساعة و 55 دقيقة قبل الساعة 17:00UTC
التوقعات صالحة من22 الساعة 18 UTC إلى 23 الساعة 18 UTC
ريح 2 عقدةمن اتجاهات متغيرة
الرؤية: 8000 متر
غيوم قليلة على ارتفاع 3000 قدم
غيوم متفرقة على ارتفاع 8000 قدم
أصبح
من 23 الساعة 00 UTC إلى 23 الساعة 02 UTC
ريح 12 عقدة من الجنوب/الجنوب الشرقي
غيوم قليلة على ارتفاع 2500 قدم
غيوم مفككة على ارتفاع 8000 قدم
نظرية الاحتمالات 30% :
مؤقت
من 23 الساعة 03 UTC إلى 23 الساعة 15 UTC
الرؤية: 5000 متر
غيوم مفككة على ارتفاع 2000 قدم
غيوم مفككة على ارتفاع 7000 قدم
زخات من المطر

TAF: HLLM 221700Z 2218/2318 VRB02KT 8000 FEW030 SCT080 BECMG 2300/2302 15012KT FEW025 BKN080 PROB30 TEMPO 2303/2315 5000 SHRA BKN020 BKN070

أرصاد الطقس والتوقعات من أكثر من 4000 مطار (تقارير الطقس للمطار METAR والتنبؤ بالطقس بالمطارTAF).

المحطات المتاحة هي النقط الصفراء والحمراء على الخريطة.

حرك المؤشر فوق النقطة لمعرفة اسم المحطة.

ثم انقر لمعرفة أرصاد وتوقعات الطقس.

لتغيير الخارطة: اضغط على الأزرار الخضراء مع رمز الصليب الأسود للتكبير. على الزر الأخضر مع شرطة للتصغير، أو على الأسهم الخضراء للخرائط المجاورة.


METAR-TAF: